createdAt,value
2022-09-28T00:00:18.423Z,0
2022-09-28T00:01:18.785Z,0
2022-09-28T00:02:19.228Z,0
2022-09-28T00:03:19.634Z,0
2022-09-28T00:04:19.268Z,0
2022-09-28T00:05:19.970Z,0
2022-09-28T00:06:20.888Z,0
2022-09-28T00:07:21.516Z,0
2022-09-28T00:08:22.165Z,0
2022-09-28T00:09:22.231Z,0
2022-09-28T00:10:22.864Z,0
2022-09-28T00:11:23.756Z,0
2022-09-28T00:12:24.670Z,0
2022-09-28T00:13:24.707Z,0
2022-09-28T00:14:25.616Z,0
2022-09-28T00:15:26.926Z,0
2022-09-28T00:16:27.458Z,0
2022-09-28T00:17:27.550Z,0
2022-09-28T00:18:28.192Z,0
2022-09-28T00:19:28.539Z,0
2022-09-28T00:20:29.743Z,0
2022-09-28T00:21:30.237Z,0
2022-09-28T00:22:29.845Z,0
2022-09-28T00:23:31.062Z,0
2022-09-28T00:24:35.140Z,0
2022-09-28T00:25:31.120Z,0
2022-09-28T00:26:31.703Z,0
2022-09-28T00:27:32.025Z,0
2022-09-28T00:28:32.650Z,0
2022-09-28T00:29:33.240Z,0
2022-09-28T00:30:34.474Z,0
2022-09-28T00:31:35.281Z,0
2022-09-28T00:32:34.721Z,0
2022-09-28T00:33:35.334Z,0
2022-09-28T00:34:36.624Z,0
2022-09-28T00:35:36.927Z,0
2022-09-28T00:36:38.153Z,0
2022-09-28T00:37:38.062Z,0
2022-09-28T00:38:38.687Z,0
2022-09-28T00:39:39.603Z,0
2022-09-28T00:40:40.221Z,0
2022-09-28T00:41:41.289Z,0
2022-09-28T00:42:41.599Z,0
2022-09-28T00:43:42.226Z,0
2022-09-28T00:44:42.846Z,0
2022-09-28T00:45:44.083Z,0
2022-09-28T00:46:44.067Z,0
2022-09-28T00:47:45.253Z,0
2022-09-28T00:48:45.281Z,0
2022-09-28T00:49:46.761Z,0
2022-09-28T00:50:47.393Z,0
2022-09-28T00:51:47.881Z,0
2022-09-28T00:52:47.497Z,0
2022-09-28T00:53:48.420Z,0
2022-09-28T00:54:48.613Z,0
2022-09-28T00:55:49.638Z,0
2022-09-28T00:56:49.551Z,0
2022-09-28T00:57:50.484Z,0
2022-09-28T00:58:51.031Z,0
2022-09-28T00:59:50.941Z,0
2022-09-28T01:00:51.897Z,0
2022-09-28T01:01:52.135Z,0
2022-09-28T01:02:52.142Z,0
2022-09-28T01:03:52.756Z,0
2022-09-28T01:04:53.391Z,0
2022-09-28T01:05:54.383Z,0
2022-09-28T01:06:54.571Z,0
2022-09-28T01:07:55.184Z,0
2022-09-28T01:08:56.103Z,0
2022-09-28T01:09:57.286Z,0
2022-09-28T01:10:57.325Z,0
2022-09-28T01:11:57.936Z,0
2022-09-28T01:12:58.857Z,0
2022-09-28T01:13:59.476Z,0
2022-09-28T01:14:59.362Z,0
2022-09-28T01:16:00.085Z,0
2022-09-28T01:17:00.845Z,0
2022-09-28T01:18:01.176Z,0
2022-09-28T01:19:01.792Z,0
2022-09-28T01:20:02.728Z,0
2022-09-28T01:21:03.051Z,0
2022-09-28T01:22:03.667Z,0
2022-09-28T01:23:04.275Z,0
2022-09-28T01:24:05.262Z,0
2022-09-28T01:25:06.453Z,0
2022-09-28T01:26:07.163Z,0
2022-09-28T01:27:07.492Z,0
2022-09-28T01:28:08.398Z,0
2022-09-28T01:29:09.017Z,0
2022-09-28T01:30:09.300Z,0
2022-09-28T01:31:09.592Z,0
2022-09-28T01:32:10.404Z,0
2022-09-28T01:33:10.603Z,0
2022-09-28T01:34:10.209Z,0
2022-09-28T01:35:11.700Z,0
2022-09-28T01:36:12.004Z,0
2022-09-28T01:37:12.921Z,0
2022-09-28T01:38:13.150Z,0
2022-09-28T01:39:13.821Z,0
2022-09-28T01:40:14.615Z,0
2022-09-28T01:41:15.952Z,0
2022-09-28T01:42:16.159Z,0
2022-09-28T01:43:16.371Z,0
2022-09-28T01:44:17.610Z,0
2022-09-28T01:45:17.515Z,0
2022-09-28T01:46:18.349Z,0
2022-09-28T01:47:18.553Z,0
2022-09-28T01:48:18.768Z,0
2022-09-28T01:49:19.135Z,0
2022-09-28T01:50:20.091Z,0
2022-09-28T01:51:19.995Z,0
2022-09-28T01:52:20.597Z,0
2022-09-28T01:53:21.221Z,0
2022-09-28T01:54:22.423Z,0
2022-09-28T01:55:22.060Z,0
2022-09-28T01:56:23.365Z,0
2022-09-28T01:57:23.576Z,0
2022-09-28T01:58:24.490Z,0
2022-09-28T01:59:25.958Z,0
2022-09-28T02:00:26.350Z,0
2022-09-28T02:01:27.498Z,0
2022-09-28T02:02:27.732Z,0
2022-09-28T02:03:28.178Z,0
2022-09-28T02:04:28.673Z,0
2022-09-28T02:05:28.303Z,0
2022-09-28T02:06:29.014Z,0
2022-09-28T02:07:29.202Z,0
2022-09-28T02:08:30.087Z,0
2022-09-28T02:09:33.766Z,0
2022-09-28T02:10:31.487Z,0
2022-09-28T02:11:32.125Z,0
2022-09-28T02:12:32.743Z,0
2022-09-28T02:13:33.350Z,0
2022-09-28T02:14:34.643Z,0
2022-09-28T02:15:35.828Z,0
2022-09-28T02:16:36.874Z,0
2022-09-28T02:17:37.467Z,0
2022-09-28T02:18:37.073Z,0
2022-09-28T02:19:37.683Z,0
2022-09-28T02:20:38.573Z,0
2022-09-28T02:21:39.508Z,0
2022-09-28T02:22:39.997Z,0
2022-09-28T02:23:39.885Z,0
2022-09-28T02:24:40.603Z,0
2022-09-28T02:25:41.275Z,0
2022-09-28T02:26:41.119Z,0
2022-09-28T02:27:41.749Z,0
2022-09-28T02:28:42.678Z,0
2022-09-28T02:29:43.606Z,0
2022-09-28T02:30:44.821Z,0
2022-09-28T02:31:45.108Z,0
2022-09-28T02:32:44.855Z,0
2022-09-28T02:33:45.480Z,0
2022-09-28T02:34:45.814Z,0
2022-09-28T02:35:46.750Z,0
2022-09-28T02:36:47.779Z,0
2022-09-28T02:37:47.971Z,0
2022-09-28T02:38:48.892Z,0
2022-09-28T02:39:48.517Z,0
2022-09-28T02:40:49.389Z,0
2022-09-28T02:41:49.386Z,0
2022-09-28T02:42:50.317Z,0
2022-09-28T02:43:51.204Z,0
2022-09-28T02:44:51.704Z,0
2022-09-28T02:45:52.489Z,0
2022-09-28T02:46:52.319Z,0
2022-09-28T02:47:52.210Z,0
2022-09-28T02:49:26.842Z,0
2022-09-28T02:49:53.071Z,0
2022-09-28T02:50:53.102Z,0
2022-09-28T02:51:54.004Z,0
2022-09-28T02:52:54.210Z,0
2022-09-28T02:53:54.830Z,0
2022-09-28T02:54:55.760Z,0
2022-09-28T02:55:55.941Z,0
2022-09-28T02:56:56.388Z,0
2022-09-28T02:57:57.594Z,0
2022-09-28T02:58:57.783Z,0
2022-09-28T02:59:57.707Z,0
2022-09-28T03:00:58.368Z,0
2022-09-28T03:01:59.710Z,0
2022-09-28T03:02:59.426Z,0
2022-09-28T03:04:00.703Z,0
2022-09-28T03:05:01.326Z,0
2022-09-28T03:06:02.219Z,0
2022-09-28T03:07:02.338Z,0
2022-09-28T03:08:03.526Z,0
2022-09-28T03:09:04.712Z,0
2022-09-28T03:10:05.410Z,0
2022-09-28T03:11:05.730Z,0
2022-09-28T03:12:06.645Z,0
2022-09-28T03:13:06.281Z,0
2022-09-28T03:14:06.876Z,0
2022-09-28T03:15:07.909Z,0
2022-09-28T03:16:09.374Z,0
2022-09-28T03:17:10.035Z,0
2022-09-28T03:18:09.944Z,0
2022-09-28T03:19:11.139Z,0
2022-09-28T03:20:11.329Z,0
2022-09-28T03:21:12.238Z,0
2022-09-28T03:22:13.149Z,0
2022-09-28T03:23:37.343Z,0
2022-09-28T03:24:14.836Z,0
2022-09-28T03:25:14.478Z,0
2022-09-28T03:26:15.094Z,0
2022-09-28T03:27:15.216Z,0
2022-09-28T03:28:16.126Z,0
2022-09-28T03:29:16.863Z,0
2022-09-28T03:30:17.971Z,0
2022-09-28T03:31:18.254Z,0
2022-09-28T03:32:18.566Z,0
2022-09-28T03:33:19.058Z,0
2022-09-28T03:34:19.673Z,0
2022-09-28T03:35:20.026Z,0
2022-09-28T03:36:21.208Z,0
2022-09-28T03:37:22.288Z,0
2022-09-28T03:38:22.917Z,0
2022-09-28T03:39:23.353Z,0
2022-09-28T03:40:23.556Z,0
2022-09-28T03:41:23.561Z,0
2022-09-28T03:42:24.446Z,0
2022-09-28T03:43:24.945Z,0
2022-09-28T03:44:24.536Z,0
2022-09-28T03:45:25.575Z,0
2022-09-28T03:46:25.598Z,0
2022-09-28T03:47:26.330Z,0
2022-09-28T03:48:36.388Z,0
2022-09-28T03:49:27.390Z,0
2022-09-28T03:50:27.726Z,0
2022-09-28T03:51:28.057Z,0
2022-09-28T03:52:29.260Z,0
2022-09-28T03:53:29.445Z,0
2022-09-28T03:54:29.473Z,0
2022-09-28T03:55:30.418Z,0
2022-09-28T03:56:30.752Z,0
2022-09-28T03:57:32.341Z,0
2022-09-28T03:58:31.976Z,0
2022-09-28T03:59:32.887Z,0
2022-09-28T04:00:34.129Z,0
2022-09-28T04:01:34.758Z,0
2022-09-28T04:02:35.480Z,0
2022-09-28T04:03:35.427Z,0
2022-09-28T04:04:36.034Z,0
2022-09-28T04:05:36.668Z,0
2022-09-28T04:06:37.575Z,0
2022-09-28T04:07:42.475Z,0
2022-09-28T04:08:39.089Z,0
2022-09-28T04:09:40.272Z,0
2022-09-28T04:10:39.904Z,0
2022-09-28T04:12:10.151Z,0
2022-09-28T04:12:41.077Z,0
2022-09-28T04:13:41.262Z,0
2022-09-28T04:14:41.855Z,0
2022-09-28T04:15:42.774Z,0
2022-09-28T04:16:44.426Z,0
2022-09-28T04:17:50.070Z,0
2022-09-28T04:18:45.563Z,0
2022-09-28T04:19:45.475Z,0
2022-09-28T04:20:46.086Z,0
2022-09-28T04:21:47.008Z,0
2022-09-28T04:22:47.501Z,0
2022-09-28T04:23:47.410Z,0
2022-09-28T04:24:48.320Z,0
2022-09-28T04:25:48.967Z,0
2022-09-28T04:26:49.887Z,0
2022-09-28T04:27:50.865Z,0
2022-09-28T04:28:52.050Z,0
2022-09-28T04:29:52.656Z,0
2022-09-28T04:30:53.302Z,0
2022-09-28T04:31:54.605Z,0
2022-09-28T04:32:54.724Z,0
2022-09-28T04:33:54.632Z,0
2022-09-28T04:34:55.508Z,0
2022-09-28T04:35:55.856Z,0
2022-09-28T04:36:57.067Z,0
2022-09-28T04:37:57.370Z,0
2022-09-28T04:39:05.335Z,0
2022-09-28T04:39:59.774Z,0
2022-09-28T04:40:59.277Z,0
2022-09-28T04:41:59.199Z,0
2022-09-28T04:42:59.829Z,0
2022-09-28T04:44:00.439Z,0
2022-09-28T04:45:00.746Z,0
2022-09-28T04:46:01.971Z,0
2022-09-28T04:47:05.115Z,0
2022-09-28T04:48:02.807Z,0
2022-09-28T04:49:02.426Z,0
2022-09-28T04:50:03.032Z,0
2022-09-28T04:51:04.247Z,0
2022-09-28T04:52:04.127Z,0
2022-09-28T04:53:05.027Z,0
2022-09-28T04:54:05.665Z,0
2022-09-28T04:55:06.012Z,0
2022-09-28T04:56:07.211Z,0
2022-09-28T04:57:07.129Z,4
2022-09-28T04:58:08.139Z,4
2022-09-28T04:59:08.751Z,0
2022-09-28T05:00:09.187Z,0
2022-09-28T05:01:10.742Z,0
2022-09-28T05:02:11.291Z,0
2022-09-28T05:03:11.244Z,4
2022-09-28T05:04:11.450Z,4
2022-09-28T05:05:11.791Z,0
2022-09-28T05:06:13.276Z,4
2022-09-28T05:07:13.178Z,4
2022-09-28T05:08:13.877Z,4
2022-09-28T05:09:14.614Z,4
2022-09-28T05:10:14.920Z,8
2022-09-28T05:11:14.866Z,8
2022-09-28T05:12:15.069Z,8
2022-09-28T05:13:15.958Z,8
2022-09-28T05:14:16.594Z,8
2022-09-28T05:15:18.080Z,8
2022-09-28T05:16:19.264Z,8
2022-09-28T05:17:18.656Z,8
2022-09-28T05:18:19.970Z,8
2022-09-28T05:19:20.053Z,8
2022-09-28T05:20:20.965Z,12
2022-09-28T05:21:21.598Z,12
2022-09-28T05:22:22.621Z,8
2022-09-28T05:23:23.556Z,12
2022-09-28T05:24:24.042Z,12
2022-09-28T05:25:24.531Z,16
2022-09-28T05:26:24.475Z,12
2022-09-28T05:27:24.507Z,16
2022-09-28T05:28:25.944Z,16
2022-09-28T05:29:29.022Z,16
2022-09-28T05:30:26.052Z,20
2022-09-28T05:31:27.353Z,20
2022-09-28T05:32:27.439Z,28
2022-09-28T05:33:28.003Z,28
2022-09-28T05:34:28.248Z,28
2022-09-28T05:35:28.855Z,32
2022-09-28T05:36:29.187Z,36
2022-09-28T05:37:30.082Z,32
2022-09-28T05:38:30.387Z,32
2022-09-28T05:39:30.601Z,32
2022-09-28T05:40:31.475Z,44
2022-09-28T05:41:31.461Z,52
2022-09-28T05:42:32.677Z,56
2022-09-28T05:43:32.667Z,56
2022-09-28T05:44:33.283Z,52
2022-09-28T05:45:33.610Z,48
2022-09-28T05:46:34.244Z,52
2022-09-28T05:47:33.844Z,52
2022-09-28T05:48:35.155Z,52
2022-09-28T05:49:35.637Z,52
2022-09-28T05:50:35.849Z,48
2022-09-28T05:51:35.775Z,44
2022-09-28T05:52:36.681Z,44
2022-09-28T05:53:37.881Z,36
2022-09-28T05:54:39.066Z,36
2022-09-28T05:55:39.233Z,36
2022-09-28T05:56:39.897Z,40
2022-09-28T05:57:39.791Z,48
2022-09-28T05:58:40.846Z,56
2022-09-28T05:59:40.760Z,64
2022-09-28T06:00:41.685Z,64
2022-09-28T06:01:42.335Z,64
2022-09-28T06:02:42.616Z,72
2022-09-28T06:03:42.343Z,76
2022-09-28T06:04:42.985Z,80
2022-09-28T06:05:44.319Z,80
2022-09-28T06:06:44.989Z,84
2022-09-28T06:07:45.623Z,88
2022-09-28T06:08:46.688Z,100
2022-09-28T06:09:47.177Z,116
2022-09-28T06:10:47.788Z,140
2022-09-28T06:11:47.706Z,144
2022-09-28T06:12:49.194Z,136
2022-09-28T06:13:48.808Z,132
2022-09-28T06:14:49.469Z,136
2022-09-28T06:15:50.676Z,132
2022-09-28T06:16:55.126Z,124
2022-09-28T06:17:50.842Z,116
2022-09-28T06:18:51.879Z,108
2022-09-28T06:19:51.517Z,100
2022-09-28T06:20:52.455Z,92
2022-09-28T06:21:53.374Z,88
2022-09-28T06:22:53.948Z,84
2022-09-28T06:24:00.124Z,84
2022-09-28T06:24:55.313Z,84
2022-09-28T06:25:55.352Z,88
2022-09-28T06:26:56.300Z,88
2022-09-28T06:27:57.211Z,84
2022-09-28T06:28:58.201Z,84
2022-09-28T06:29:59.116Z,92
2022-09-28T06:30:59.842Z,108
2022-09-28T06:32:00.186Z,112
2022-09-28T06:32:59.795Z,100
2022-09-28T06:34:00.437Z,100
2022-09-28T06:35:06.887Z,108
2022-09-28T06:36:02.799Z,124
2022-09-28T06:37:03.134Z,136
2022-09-28T06:38:04.051Z,140
2022-09-28T06:39:04.658Z,124
2022-09-28T06:40:04.872Z,120
2022-09-28T06:41:05.282Z,120
2022-09-28T06:42:05.233Z,124
2022-09-28T06:43:05.845Z,132
2022-09-28T06:44:06.485Z,148
2022-09-28T06:45:06.971Z,144
2022-09-28T06:46:07.287Z,136
2022-09-28T06:47:07.046Z,136
2022-09-28T06:48:07.261Z,144
2022-09-28T06:49:08.012Z,156
2022-09-28T06:50:08.668Z,156
2022-09-28T06:51:09.862Z,152
2022-09-28T06:52:09.774Z,156
2022-09-28T06:53:10.697Z,164
2022-09-28T06:54:11.484Z,168
2022-09-28T06:55:12.965Z,172
2022-09-28T06:56:13.538Z,176
2022-09-28T06:57:13.759Z,172
2022-09-28T06:58:14.264Z,160
2022-09-28T06:59:13.979Z,148
2022-09-28T07:00:14.892Z,136
2022-09-28T07:01:15.658Z,128
2022-09-28T07:02:17.341Z,128
2022-09-28T07:03:17.830Z,140
2022-09-28T07:04:18.427Z,156
2022-09-28T07:05:18.996Z,156
2022-09-28T07:06:18.932Z,152
2022-09-28T07:07:19.570Z,144
2022-09-28T07:08:20.202Z,144
2022-09-28T07:09:56.683Z,140
2022-09-28T07:10:42.611Z,140
2022-09-28T07:11:43.105Z,136
2022-09-28T07:12:43.317Z,148
2022-09-28T07:14:46.446Z,164
2022-09-28T07:15:04.997Z,172
2022-09-28T07:16:04.030Z,188
2022-09-28T07:17:24.197Z,208
2022-09-28T07:18:13.469Z,216
2022-09-28T07:19:05.348Z,208
2022-09-28T07:20:24.442Z,208
2022-09-28T07:21:07.269Z,220
2022-09-28T07:22:21.693Z,244
2022-09-28T07:23:25.246Z,256
2022-09-28T07:24:08.814Z,248
2022-09-28T07:25:09.171Z,228
2022-09-28T07:26:14.475Z,212
2022-09-28T07:27:10.317Z,204
2022-09-28T07:28:11.248Z,208
2022-09-28T07:29:12.135Z,220
2022-09-28T07:30:12.898Z,232
2022-09-28T07:31:13.407Z,232
2022-09-28T07:32:13.470Z,232
2022-09-28T07:33:14.785Z,224
2022-09-28T07:34:14.812Z,228
2022-09-28T07:35:15.442Z,236
2022-09-28T07:36:16.695Z,248
2022-09-28T07:37:17.202Z,256
2022-09-28T07:38:17.353Z,256
2022-09-28T07:39:18.298Z,256
2022-09-28T07:40:19.715Z,248
2022-09-28T07:41:20.182Z,240
2022-09-28T07:42:20.123Z,236
2022-09-28T07:43:20.921Z,240
2022-09-28T07:44:21.768Z,240
2022-09-28T07:45:22.505Z,240
2022-09-28T07:46:23.779Z,260
2022-09-28T07:47:23.724Z,272
2022-09-28T07:48:24.409Z,260
2022-09-28T07:49:24.951Z,248
2022-09-28T07:50:25.758Z,244
2022-09-28T07:51:25.705Z,252
2022-09-28T07:52:26.902Z,272
2022-09-28T07:53:28.112Z,304
2022-09-28T07:54:27.718Z,316
2022-09-28T07:55:28.326Z,320
2022-09-28T07:56:28.926Z,320
2022-09-28T07:57:30.142Z,320
2022-09-28T07:58:30.822Z,304
2022-09-28T07:59:31.439Z,284
2022-09-28T08:00:39.246Z,292
2022-09-28T08:01:34.009Z,300
2022-09-28T08:02:34.558Z,308
2022-09-28T08:03:34.922Z,320
2022-09-28T08:04:35.420Z,324
2022-09-28T08:05:35.617Z,328
2022-09-28T08:06:36.546Z,328
2022-09-28T08:07:36.482Z,324
2022-09-28T08:08:36.856Z,332
2022-09-28T08:09:37.763Z,332
2022-09-28T08:10:38.562Z,332
2022-09-28T08:11:38.554Z,324
2022-09-28T08:12:39.480Z,300
2022-09-28T08:13:40.121Z,272
2022-09-28T08:14:40.316Z,268
2022-09-28T08:15:40.827Z,280
2022-09-28T08:16:41.352Z,300
2022-09-28T08:17:41.136Z,312
2022-09-28T08:18:41.433Z,320
2022-09-28T08:19:42.370Z,324
2022-09-28T08:20:42.747Z,328
2022-09-28T08:21:42.973Z,312
2022-09-28T08:22:43.186Z,312
2022-09-28T08:23:43.694Z,320
2022-09-28T08:24:44.192Z,312
2022-09-28T08:25:44.185Z,308
2022-09-28T08:26:45.426Z,296
2022-09-28T08:27:45.645Z,284
2022-09-28T08:28:46.280Z,292
2022-09-28T08:29:46.926Z,288
2022-09-28T08:30:48.615Z,284
2022-09-28T08:31:48.592Z,288
2022-09-28T08:32:49.841Z,292
2022-09-28T08:33:50.091Z,292
2022-09-28T08:34:51.292Z,296
2022-09-28T08:35:51.209Z,304
2022-09-28T08:36:51.169Z,316
2022-09-28T08:38:00.902Z,308
2022-09-28T08:38:53.397Z,308
2022-09-28T08:39:53.648Z,304
2022-09-28T08:40:54.307Z,288
2022-09-28T08:41:54.666Z,292
2022-09-28T08:42:55.640Z,300
2022-09-28T08:43:56.102Z,296
2022-09-28T08:44:56.328Z,292
2022-09-28T08:45:57.479Z,288
2022-09-28T08:46:57.479Z,312
2022-09-28T08:47:58.098Z,332
2022-09-28T08:49:36.966Z,352
2022-09-28T08:50:00.339Z,360
2022-09-28T08:51:00.501Z,372
2022-09-28T08:52:00.454Z,396
2022-09-28T08:53:00.787Z,424
2022-09-28T08:54:00.986Z,448
2022-09-28T08:55:01.901Z,480
2022-09-28T08:56:03.553Z,500
2022-09-28T08:57:03.329Z,520
2022-09-28T08:58:04.529Z,540
2022-09-28T08:59:05.099Z,532
2022-09-28T09:00:08.363Z,552
2022-09-28T09:01:06.682Z,568
2022-09-28T09:02:09.802Z,544
2022-09-28T09:03:06.843Z,512
2022-09-28T09:04:08.367Z,480
2022-09-28T09:05:08.290Z,496
2022-09-28T09:06:09.204Z,524
2022-09-28T09:07:10.213Z,540
2022-09-28T09:08:10.455Z,532
2022-09-28T09:09:11.159Z,524
2022-09-28T09:10:12.444Z,540
2022-09-28T09:11:12.204Z,560
2022-09-28T09:12:12.787Z,584
2022-09-28T09:13:14.290Z,632
2022-09-28T09:14:14.579Z,664
2022-09-28T09:15:15.495Z,684
2022-09-28T09:16:16.224Z,696
2022-09-28T09:17:16.281Z,680
2022-09-28T09:18:20.940Z,624
2022-09-28T09:19:18.115Z,664
2022-09-28T09:20:18.166Z,628
2022-09-28T09:21:18.782Z,580
2022-09-28T09:22:19.139Z,556
2022-09-28T09:23:19.755Z,572
2022-09-28T09:24:19.685Z,560
2022-09-28T09:25:19.621Z,560
2022-09-28T09:26:29.520Z,604
2022-09-28T09:27:21.732Z,628
2022-09-28T09:28:21.351Z,660
2022-09-28T09:29:22.888Z,716
2022-09-28T09:30:28.953Z,792
2022-09-28T09:31:28.599Z,836
2022-09-28T09:32:24.819Z,860
2022-09-28T09:33:24.769Z,864
2022-09-28T09:34:25.219Z,840
2022-09-28T09:35:34.361Z,804
2022-09-28T09:36:26.614Z,792
2022-09-28T09:37:27.593Z,780
2022-09-28T09:38:27.808Z,764
2022-09-28T09:39:28.732Z,768
2022-09-28T09:40:29.365Z,756
2022-09-28T09:41:30.855Z,736
2022-09-28T09:42:30.527Z,708
2022-09-28T09:43:37.419Z,700
2022-09-28T09:44:32.115Z,688
2022-09-28T09:45:32.427Z,660
2022-09-28T09:46:32.620Z,632
2022-09-28T09:47:33.521Z,596
2022-09-28T09:48:34.763Z,576
2022-09-28T09:49:34.972Z,568
2022-09-28T09:50:36.362Z,556
2022-09-28T09:51:36.114Z,552
2022-09-28T09:52:37.763Z,564
2022-09-28T09:53:43.896Z,572
2022-09-28T09:54:37.606Z,572
2022-09-28T09:55:41.033Z,580
2022-09-28T09:56:39.303Z,600
2022-09-28T09:57:39.236Z,592
2022-09-28T09:58:39.413Z,560
2022-09-28T09:59:40.724Z,560
2022-09-28T10:00:41.239Z,632
2022-09-28T10:01:41.574Z,704
2022-09-28T10:02:42.560Z,748
2022-09-28T10:03:42.424Z,752
2022-09-28T10:04:43.320Z,756
2022-09-28T10:05:44.234Z,752
2022-09-28T10:06:44.728Z,736
2022-09-28T10:07:48.984Z,704
2022-09-28T10:08:45.494Z,676
2022-09-28T10:09:45.693Z,672
2022-09-28T10:10:45.348Z,712
2022-09-28T10:11:46.360Z,744
2022-09-28T10:12:48.869Z,776
2022-09-28T10:13:47.755Z,744
2022-09-28T10:14:48.262Z,700
2022-09-28T10:15:48.458Z,660
2022-09-28T10:16:49.659Z,616
2022-09-28T10:17:50.235Z,600
2022-09-28T10:18:49.867Z,612
2022-09-28T10:19:50.802Z,596
2022-09-28T10:20:51.769Z,596
2022-09-28T10:21:52.200Z,592
2022-09-28T10:22:52.742Z,576
2022-09-28T10:23:52.907Z,564
2022-09-28T10:24:53.959Z,568
2022-09-28T10:25:54.148Z,568
2022-09-28T10:26:55.107Z,560
2022-09-28T10:27:55.599Z,572
2022-09-28T10:28:55.820Z,592
2022-09-28T10:29:55.780Z,604
2022-09-28T10:30:57.114Z,616
2022-09-28T10:31:57.047Z,628
2022-09-28T10:32:57.962Z,636
2022-09-28T10:33:58.580Z,644
2022-09-28T10:35:02.218Z,668
2022-09-28T10:36:00.735Z,704
2022-09-28T10:37:00.689Z,744
2022-09-28T10:38:01.235Z,772
2022-09-28T10:39:01.450Z,784
2022-09-28T10:40:02.346Z,768
2022-09-28T10:41:03.658Z,740
2022-09-28T10:42:04.119Z,720
2022-09-28T10:43:05.336Z,696
2022-09-28T10:44:09.265Z,684
2022-09-28T10:45:06.873Z,712
2022-09-28T10:46:07.140Z,772
2022-09-28T10:47:07.524Z,828
2022-09-28T10:48:08.438Z,892
2022-09-28T10:49:08.637Z,976
2022-09-28T10:50:09.276Z,980
2022-09-28T10:51:10.513Z,980
2022-09-28T10:52:10.653Z,948
2022-09-28T10:53:11.602Z,896
2022-09-28T10:54:13.122Z,804
2022-09-28T10:55:13.203Z,724
2022-09-28T10:56:14.149Z,708
2022-09-28T10:57:19.397Z,764
2022-09-28T10:58:16.025Z,840
2022-09-28T10:59:15.949Z,852
2022-09-28T11:00:17.277Z,776
2022-09-28T11:01:17.705Z,636
2022-09-28T11:02:18.714Z,568
2022-09-28T11:03:18.703Z,564
2022-09-28T11:04:18.866Z,596
2022-09-28T11:05:20.430Z,616
2022-09-28T11:06:20.353Z,624
2022-09-28T11:07:23.125Z,612
2022-09-28T11:08:21.766Z,608
2022-09-28T11:09:24.612Z,632
2022-09-28T11:10:23.939Z,652
2022-09-28T11:11:25.164Z,684
2022-09-28T11:12:25.468Z,712
2022-09-28T11:13:26.130Z,740
2022-09-28T11:14:26.030Z,752
2022-09-28T11:15:26.826Z,756
2022-09-28T11:16:28.221Z,784
2022-09-28T11:17:27.911Z,812
2022-09-28T11:18:29.147Z,776
2022-09-28T11:19:29.294Z,752
2022-09-28T11:20:34.190Z,744
2022-09-28T11:21:30.284Z,704
2022-09-28T11:22:30.113Z,700
2022-09-28T11:23:31.664Z,772
2022-09-28T11:24:32.868Z,860
2022-09-28T11:25:32.242Z,864
2022-09-28T11:26:33.169Z,856
2022-09-28T11:27:33.381Z,832
2022-09-28T11:28:33.605Z,792
2022-09-28T11:29:34.532Z,784
2022-09-28T11:30:35.026Z,796
2022-09-28T11:31:34.837Z,824
2022-09-28T11:32:35.686Z,876
2022-09-28T11:33:36.032Z,892
2022-09-28T11:35:05.903Z,912
2022-09-28T11:35:37.128Z,920
2022-09-28T11:36:38.333Z,920
2022-09-28T11:37:38.235Z,932
2022-09-28T11:38:39.489Z,988
2022-09-28T11:39:39.728Z,1028
2022-09-28T11:40:40.698Z,928
2022-09-28T11:41:40.714Z,848
2022-09-28T11:42:42.498Z,848
2022-09-28T11:43:42.725Z,892
2022-09-28T11:44:44.198Z,904
2022-09-28T11:45:43.402Z,912
2022-09-28T11:46:44.079Z,924
2022-09-28T11:47:44.301Z,952
2022-09-28T11:48:44.916Z,1004
2022-09-28T11:49:45.833Z,1060
2022-09-28T11:50:46.767Z,1056
2022-09-28T11:51:47.276Z,1192
2022-09-28T11:52:48.023Z,1456
2022-09-28T11:53:48.676Z,1532
2022-09-28T11:54:48.604Z,1516
2022-09-28T11:55:49.805Z,1616
2022-09-28T11:56:49.997Z,1844
2022-09-28T11:57:50.215Z,2000
2022-09-28T11:58:51.109Z,2088
2022-09-28T11:59:52.065Z,2076
2022-09-28T12:00:51.998Z,1932
2022-09-28T12:01:52.639Z,1956
2022-09-28T12:02:53.427Z,1780
2022-09-28T12:03:54.067Z,1748
2022-09-28T12:04:54.410Z,1984
2022-09-28T12:05:55.611Z,1872
2022-09-28T12:06:55.843Z,1712
2022-09-28T12:07:56.772Z,1796
2022-09-28T12:08:57.771Z,2312
2022-09-28T12:09:57.688Z,1900
2022-09-28T12:10:58.939Z,1444
2022-09-28T12:11:59.546Z,1100
2022-09-28T12:13:00.040Z,1028
2022-09-28T12:14:00.976Z,1080
2022-09-28T12:15:00.882Z,1136
2022-09-28T12:17:15.404Z,1056
2022-09-28T12:17:33.860Z,1048
2022-09-28T12:18:34.161Z,1052
2022-09-28T12:19:34.157Z,1128
2022-09-28T12:20:34.388Z,1220
2022-09-28T12:21:35.134Z,1320
2022-09-28T12:22:35.157Z,1384
2022-09-28T12:23:36.259Z,1648
2022-09-28T12:24:36.507Z,2008
2022-09-28T12:25:36.713Z,1492
2022-09-28T12:26:43.335Z,1232
2022-09-28T12:27:38.725Z,1016
2022-09-28T12:28:38.330Z,992
2022-09-28T12:29:39.540Z,1084
2022-09-28T12:30:40.775Z,1172
2022-09-28T12:31:41.133Z,1092
2022-09-28T12:32:41.341Z,924
2022-09-28T12:33:42.353Z,804
2022-09-28T12:34:42.854Z,728
2022-09-28T12:35:43.064Z,656
2022-09-28T12:36:43.983Z,624
2022-09-28T12:37:44.614Z,636
2022-09-28T12:38:48.233Z,664
2022-09-28T12:40:08.820Z,716
2022-09-28T12:40:46.015Z,720
2022-09-28T12:41:47.018Z,716
2022-09-28T12:42:47.518Z,732
2022-09-28T12:43:47.632Z,732
2022-09-28T12:44:48.132Z,724
2022-09-28T12:46:18.671Z,728
2022-09-28T12:46:50.045Z,728
2022-09-28T12:47:50.098Z,732
2022-09-28T12:50:37.424Z,760
2022-09-28T12:51:09.183Z,808
2022-09-28T12:52:06.692Z,852
2022-09-28T12:53:10.794Z,900
2022-09-28T12:54:06.523Z,948
2022-09-28T12:55:07.476Z,1048
2022-09-28T12:56:07.818Z,1164
2022-09-28T12:57:08.398Z,1148
2022-09-28T12:58:09.026Z,1204
2022-09-28T12:59:09.968Z,1084
2022-09-28T13:00:09.782Z,1032
2022-09-28T13:01:10.938Z,1032
2022-09-28T13:02:10.915Z,1060
2022-09-28T13:03:11.718Z,1160
2022-09-28T13:04:18.801Z,1448
2022-09-28T13:05:12.565Z,1568
2022-09-28T13:06:13.500Z,1460
2022-09-28T13:07:14.730Z,1196
2022-09-28T13:08:14.947Z,952
2022-09-28T13:09:14.956Z,792
2022-09-28T13:10:16.479Z,740
2022-09-28T13:11:19.448Z,748
2022-09-28T13:12:17.019Z,772
2022-09-28T13:13:16.921Z,796
2022-09-28T13:14:17.840Z,824
2022-09-28T13:15:19.143Z,840
2022-09-28T13:16:19.374Z,844
2022-09-28T13:17:20.200Z,860
2022-09-28T13:18:20.755Z,852
2022-09-28T13:19:21.173Z,836
2022-09-28T13:20:21.271Z,824
2022-09-28T13:21:22.175Z,812
2022-09-28T13:22:22.771Z,784
2022-09-28T13:23:22.981Z,760
2022-09-28T13:24:42.615Z,708
2022-09-28T13:25:30.737Z,684
2022-09-28T13:26:32.054Z,644
2022-09-28T13:27:32.252Z,588
2022-09-28T13:28:37.398Z,516
2022-09-28T13:29:34.057Z,460
2022-09-28T13:30:34.221Z,416
2022-09-28T13:31:42.545Z,408
2022-09-28T13:32:35.204Z,420
2022-09-28T13:33:36.128Z,456
2022-09-28T13:34:37.622Z,512
2022-09-28T13:35:38.065Z,572
2022-09-28T13:36:38.715Z,616
2022-09-28T13:37:39.863Z,604
2022-09-28T13:38:40.081Z,568
2022-09-28T13:39:40.278Z,540
2022-09-28T13:40:40.185Z,540
2022-09-28T13:41:41.575Z,572
2022-09-28T13:42:42.231Z,600
2022-09-28T13:43:41.626Z,592
2022-09-28T13:44:43.148Z,552
2022-09-28T13:45:44.218Z,500
2022-09-28T13:46:44.617Z,436
2022-09-28T13:47:44.545Z,384
2022-09-28T13:48:45.467Z,428
2022-09-28T13:49:46.393Z,428
2022-09-28T13:50:46.615Z,440
2022-09-28T13:51:47.247Z,452
2022-09-28T13:52:48.181Z,412
2022-09-28T13:53:51.154Z,344
2022-09-28T13:54:52.896Z,368
2022-09-28T13:55:49.894Z,408
2022-09-28T13:56:50.977Z,444
2022-09-28T13:57:51.485Z,464
2022-09-28T13:58:51.412Z,456
2022-09-28T13:59:52.327Z,452
2022-09-28T14:00:52.510Z,440
2022-09-28T14:01:53.383Z,436
2022-09-28T14:02:53.715Z,440
2022-09-28T14:03:53.353Z,468
2022-09-28T14:04:53.279Z,492
2022-09-28T14:05:54.594Z,500
2022-09-28T14:07:01.173Z,476
2022-09-28T14:07:59.508Z,452
2022-09-28T14:08:56.445Z,424
2022-09-28T14:09:56.660Z,400
2022-09-28T14:10:57.782Z,384
2022-09-28T14:11:57.705Z,376
2022-09-28T14:12:58.333Z,344
2022-09-28T14:13:59.195Z,292
2022-09-28T14:15:00.416Z,224
2022-09-28T14:16:01.200Z,232
2022-09-28T14:17:01.302Z,248
2022-09-28T14:18:01.566Z,260
2022-09-28T14:19:01.195Z,240